Airfield :
LOGIN :

Register | Disclaimer

   EN    FR    IT 

 










Legend :    VFR   Marginal VFR   IFR   Intensive IFR   Very Intensive IFR
Visi :
Ceiling :
>= 8 km
>= 3000ft
5 to 8 km
1000 to 3000 ft
1500m to 5 km
500 to 1000 ft
800 to 1500m
200 to 500 ft
< 800m
< 200 ft
Symbols :   Thunderstorms  Fog  Heavy snow  Heavy precipitations  Wind > 20 kt
SIGMETs :     Misc.  Thunderstorms  Icing  Turbulence  Mountain Waves  Volcanic Ashes






- Airport Elevation : 16 ft
- IATA code : EAS


LESO - San Sebastian Fuenterrabia

CURRENT METAR :
  • 301400Z 07007KT 050V110 CAVOK 13/09 Q1016

EXPIRED METARs :
  • 301330Z 06007KT 9999 FEW030 13/09 Q1016
  • 301300Z 04006KT 9999 FEW030 13/10 Q1016
  • 301230Z 05005KT 020V110 9999 FEW020 13/10 Q1016
  • 301200Z 03008KT 360V060 9999 FEW020 12/10 Q1017
  • 301130Z 01005KT 320V050 9999 FEW025 12/10 Q1017

TAF TAF LESO
Valid from the 30 at 12:00 until the 01 at 12:00 UTC


301100Z 3012/0112 05009KT CAVOK TX12/3013Z TN04/0102Z
PROB40
TEMPO 3020/0109 3000 BR BKN005
PROB30
TEMPO 3022/0109 0800 BCFG BKN002
TEMPO 0109/0112 BKN005 BKN010



MET'MAP, your aeronautical weather chart ! - Copyright ORBIFLY December 2007 - Disclaimer

ORBIFLY MET'MAP TEAM :

Programming & Development : Alexandra Zaïnal
Original concept : Baudouin d'Aumeries
Technical & hardware support : Manuel Goepfert
Assistance : Marc-Olivier Méhu




SOURCES & CREDITS :

   NOAA